Time;durP1;ratioP1;P1;durP2;ratioP2;P2;SDS_P1;SDS_P2;PMS_P1;PMS_P2;Temp;Humidity;BMP_temperature;BMP_pressure;BME280_temperature;BME280_humidity;BME280_pressure;Samples;Min_cycle;Max_cycle;Signal;HPM_P1;HPM_P2
2023/07/16 00:01:28;;;;;;;11.80;2.05;;;17.20;99.90;;;;;;5047829;28;20299;-81
2023/07/16 00:03:54;;;;;;;5.93;1.40;;;16.10;99.90;;;;;;5031811;28;20484;-83
2023/07/16 00:06:20;;;;;;;8.85;1.67;;;17.20;99.90;;;;;;5046438;28;20464;-83
2023/07/16 00:08:45;;;;;;;3.88;1.17;;;17.10;99.90;;;;;;5032571;28;20045;-83
2023/07/16 00:11:11;;;;;;;6.18;1.75;;;17.10;99.90;;;;;;5046334;28;20048;-81
2023/07/16 00:13:37;;;;;;;6.03;1.92;;;17.10;99.90;;;;;;5048015;28;20036;-82
2023/07/16 00:16:03;;;;;;;8.27;1.83;;;17.00;99.90;;;;;;5014158;28;20504;-82
2023/07/16 00:18:29;;;;;;;5.35;1.80;;;17.00;99.90;;;;;;5046728;28;20048;-82
2023/07/16 00:20:55;;;;;;;10.23;3.13;;;17.00;99.90;;;;;;5047830;28;20044;-82
2023/07/16 00:23:20;;;;;;;8.45;1.90;;;17.00;99.90;;;;;;5029521;28;20182;-82
2023/07/16 00:25:46;;;;;;;9.05;2.65;;;16.90;99.90;;;;;;5048430;28;20052;-82
2023/07/16 00:28:12;;;;;;;8.10;2.03;;;16.90;99.90;;;;;;5045495;28;20467;-82
2023/07/16 00:30:38;;;;;;;7.60;1.60;;;17.00;99.90;;;;;;5031012;28;20040;-82
2023/07/16 00:33:03;;;;;;;6.20;1.80;;;16.90;99.90;;;;;;5046445;28;20219;-82
2023/07/16 00:35:29;;;;;;;6.15;2.05;;;16.90;99.90;;;;;;5046558;28;20504;-82
2023/07/16 00:37:55;;;;;;;7.38;1.80;;;16.90;99.90;;;;;;5046636;28;20044;-82
2023/07/16 00:40:20;;;;;;;3.83;1.60;;;16.90;99.90;;;;;;5063996;28;20048;-82
2023/07/16 00:42:46;;;;;;;10.05;1.65;;;16.90;99.90;;;;;;5047506;28;20104;-81
2023/07/16 00:45:14;;;;;;;8.35;1.50;;;16.90;99.90;;;;;;5063788;28;20314;-83
2023/07/16 00:47:41;;;;;;;7.07;1.65;;;16.80;99.90;;;;;;5065158;28;20060;-82
2023/07/16 00:50:10;;;;;;;7.55;1.58;;;16.80;99.90;;;;;;5064345;28;20053;-82
2023/07/16 00:52:35;;;;;;;6.18;1.40;;;16.80;99.90;;;;;;5046216;28;20080;-82
2023/07/16 00:55:01;;;;;;;7.53;1.95;;;16.80;99.90;;;;;;5046156;28;20100;-83
2023/07/16 00:57:27;;;;;;;6.65;1.75;;;16.80;99.90;;;;;;5045945;28;20047;-82
2023/07/16 00:59:53;;;;;;;4.07;1.33;;;16.80;99.90;;;;;;5047754;28;20045;-82
2023/07/16 01:02:19;;;;;;;7.40;1.85;;;16.80;99.90;;;;;;5063963;28;20471;-82
2023/07/16 01:04:45;;;;;;;6.22;1.73;;;16.30;99.90;;;;;;5030516;28;20124;-82
2023/07/16 01:07:14;;;;;;;8.48;1.45;;;16.80;99.90;;;;;;5064172;28;20041;-82
2023/07/16 01:09:42;;;;;;;7.70;1.88;;;16.80;99.90;;;;;;5046098;28;20053;-82
2023/07/16 01:12:09;;;;;;;8.10;1.98;;;16.80;99.90;;;;;;5046370;28;20102;-82
2023/07/16 01:14:35;;;;;;;7.65;1.80;;;16.80;99.90;;;;;;5063659;28;20056;-82
2023/07/16 01:17:06;;;;;;;8.30;1.60;;;16.80;99.90;;;;;;5065194;28;20045;-82
2023/07/16 01:19:33;;;;;;;4.28;1.90;;;16.70;99.90;;;;;;5045161;28;20052;-82
2023/07/16 01:22:17;;;;;;;5.63;1.38;;;16.80;99.90;;;;;;5014124;28;20045;-82
2023/07/16 01:25:01;;;;;;;9.07;2.25;;;16.80;99.90;;;;;;5029291;28;20040;-82
2023/07/16 01:27:51;;;;;;;5.13;2.60;;;16.80;99.90;;;;;;5046317;28;20088;-83
2023/07/16 01:30:19;;;;;;;6.63;2.00;;;16.80;99.90;;;;;;5065699;28;20068;-82
2023/07/16 01:32:48;;;;;;;8.50;1.90;;;16.80;99.90;;;;;;5063245;28;20124;-83
2023/07/16 01:35:15;;;;;;;11.45;1.77;;;16.90;99.90;;;;;;5046107;28;20098;-82
2023/07/16 01:37:41;;;;;;;7.53;1.58;;;16.90;99.90;;;;;;5029684;28;20513;-82
2023/07/16 01:40:11;;;;;;;7.15;2.15;;;16.90;99.90;;;;;;5047915;28;20056;-81
2023/07/16 01:42:37;;;;;;;6.68;2.03;;;17.00;99.90;;;;;;5068966;28;20445;-82
2023/07/16 01:45:03;;;;;;;8.40;2.08;;;17.00;99.90;;;;;;5067170;28;20649;-82
2023/07/16 01:47:29;;;;;;;7.97;2.08;;;17.00;99.90;;;;;;5034079;28;20051;-83
2023/07/16 01:49:55;;;;;;;10.50;1.55;;;17.00;99.90;;;;;;5048896;28;20048;-83
2023/07/16 01:52:21;;;;;;;11.55;2.13;;;17.00;99.90;;;;;;5049852;28;20128;-83
2023/07/16 01:54:47;;;;;;;9.98;1.80;;;16.90;99.90;;;;;;5049651;28;20197;-82
2023/07/16 01:57:13;;;;;;;9.82;1.65;;;17.00;99.90;;;;;;5049924;28;20488;-82
2023/07/16 01:59:39;;;;;;;4.93;1.88;;;17.00;99.90;;;;;;5050602;28;20041;-83
2023/07/16 02:02:05;;;;;;;5.80;1.63;;;17.00;99.90;;;;;;5066659;28;20110;-82
2023/07/16 02:04:31;;;;;;;4.93;1.60;;;16.90;99.90;;;;;;5050996;28;20040;-82
2023/07/16 02:06:57;;;;;;;6.22;1.60;;;17.00;99.90;;;;;;5048515;28;20051;-82
2023/07/16 02:09:23;;;;;;;5.20;1.17;;;17.00;99.90;;;;;;5068229;28;20089;-82
2023/07/16 02:11:51;;;;;;;7.22;2.17;;;16.90;99.90;;;;;;5032512;28;20084;-82
2023/07/16 02:14:16;;;;;;;10.45;1.50;;;17.00;99.90;;;;;;5049748;28;20048;-82
2023/07/16 02:16:42;;;;;;;13.57;1.95;;;16.90;99.90;;;;;;5034154;28;20047;-82
2023/07/16 02:19:08;;;;;;;7.07;1.70;;;17.00;99.90;;;;;;5050368;28;20125;-82
2023/07/16 02:21:33;;;;;;;9.02;1.80;;;16.90;99.90;;;;;;5052739;28;20040;-81
2023/07/16 02:23:59;;;;;;;10.30;2.05;;;16.90;99.90;;;;;;5049902;28;20051;-81
2023/07/16 02:26:25;;;;;;;5.07;1.85;;;16.80;99.90;;;;;;5070118;28;20123;-81
2023/07/16 02:28:51;;;;;;;8.73;1.90;;;16.80;99.90;;;;;;5052292;28;20052;-81
2023/07/16 02:31:19;;;;;;;9.35;2.00;;;17.90;99.90;;;;;;5051909;28;20349;-80
2023/07/16 02:33:45;;;;;;;6.10;1.92;;;16.80;99.90;;;;;;5053912;28;20124;-82
2023/07/16 02:36:11;;;;;;;6.28;2.38;;;16.80;99.90;;;;;;5052966;28;20100;-81
2023/07/16 02:38:36;;;;;;;5.78;2.40;;;16.80;99.90;;;;;;5056764;28;20075;-82
2023/07/16 02:41:02;;;;;;;7.07;2.42;;;16.70;99.90;;;;;;5051461;28;20043;-81
2023/07/16 02:43:28;;;;;;;5.55;2.15;;;16.80;99.90;;;;;;5035121;28;20123;-82
2023/07/16 02:45:54;;;;;;;9.05;2.28;;;16.80;99.90;;;;;;5049826;28;20045;-84
2023/07/16 02:48:20;;;;;;;8.27;1.92;;;16.80;99.90;;;;;;5049621;28;20161;-82
2023/07/16 02:50:46;;;;;;;10.40;2.65;;;15.70;99.90;;;;;;5015630;28;20053;-83
2023/07/16 02:53:11;;;;;;;13.65;2.40;;;16.80;99.90;;;;;;5049259;28;20044;-84
2023/07/16 02:55:37;;;;;;;6.05;2.35;;;16.90;99.90;;;;;;5033439;28;20044;-83
2023/07/16 02:58:05;;;;;;;8.10;2.90;;;16.80;99.90;;;;;;5048772;28;20049;-83
2023/07/16 03:00:31;;;;;;;6.93;2.30;;;16.90;99.90;;;;;;5033343;28;20057;-83
2023/07/16 03:02:58;;;;;;;6.70;2.30;;;16.80;99.90;;;;;;5049113;28;20120;-82
2023/07/16 03:05:25;;;;;;;9.85;2.85;;;17.00;99.90;;;;;;5052630;28;20044;-83
2023/07/16 03:07:51;;;;;;;7.22;2.45;;;16.80;99.90;;;;;;5054037;28;20049;-81
2023/07/16 03:10:16;;;;;;;4.90;1.90;;;16.80;99.90;;;;;;5054547;28;20048;-81
2023/07/16 03:12:42;;;;;;;5.78;2.30;;;16.80;99.90;;;;;;5053669;28;20080;-81
2023/07/16 03:15:21;;;;;;;6.75;1.88;;;16.80;99.90;;;;;;5033553;28;20083;-84
2023/07/16 03:17:47;;;;;;;10.20;2.40;;;16.90;99.90;;;;;;5051758;28;20158;-83
2023/07/16 03:20:13;;;;;;;8.52;2.90;;;16.90;99.90;;;;;;5049413;28;20574;-83
2023/07/16 03:22:38;;;;;;;10.30;2.72;;;16.80;99.90;;;;;;5050212;28;20499;-83
2023/07/16 03:25:05;;;;;;;7.90;2.40;;;16.80;99.90;;;;;;5036518;28;20098;-82
2023/07/16 03:27:30;;;;;;;9.27;2.78;;;16.80;99.90;;;;;;5051567;28;20143;-83
2023/07/16 03:29:57;;;;;;;9.32;2.50;;;16.80;99.90;;;;;;5049861;28;20150;-85
2023/07/16 03:32:22;;;;;;;6.32;2.00;;;16.80;99.90;;;;;;5015288;28;20048;-83
2023/07/16 03:34:48;;;;;;;11.20;2.38;;;16.80;99.90;;;;;;5032806;28;20888;-83
2023/07/16 03:37:14;;;;;;;6.50;2.08;;;16.80;99.90;;;;;;5047667;28;20036;-83
2023/07/16 03:39:39;;;;;;;8.13;2.55;;;16.80;99.90;;;;;;5031352;28;20234;-83
2023/07/16 03:42:05;;;;;;;7.55;2.90;;;16.80;99.90;;;;;;5048033;28;20049;-83
2023/07/16 03:44:31;;;;;;;5.72;2.67;;;16.80;99.90;;;;;;5030998;28;20488;-83
2023/07/16 03:46:56;;;;;;;7.13;2.63;;;16.80;99.90;;;;;;5047516;28;20131;-83
2023/07/16 03:49:22;;;;;;;8.43;2.20;;;16.80;99.90;;;;;;5047540;28;20044;-83
2023/07/16 03:51:48;;;;;;;5.05;2.95;;;16.80;99.90;;;;;;5049028;28;20132;-83
2023/07/16 03:54:13;;;;;;;6.70;2.17;;;16.80;99.90;;;;;;5047057;28;20067;-82
2023/07/16 03:56:39;;;;;;;7.40;2.90;;;16.80;99.90;;;;;;5031614;28;20086;-83
2023/07/16 03:59:05;;;;;;;7.75;2.60;;;16.80;99.90;;;;;;5047318;28;20120;-83
2023/07/16 04:01:30;;;;;;;9.68;2.40;;;15.40;99.90;;;;;;5047262;28;20105;-83
2023/07/16 04:03:56;;;;;;;8.35;2.88;;;16.80;99.90;;;;;;5030486;28;20040;-81
2023/07/16 04:06:22;;;;;;;9.13;2.92;;;16.80;99.90;;;;;;5046587;28;20542;-83
2023/07/16 04:08:47;;;;;;;5.20;2.38;;;16.80;99.90;;;;;;5031559;28;20090;-82
2023/07/16 04:11:13;;;;;;;5.95;2.58;;;16.80;99.90;;;;;;5030158;28;20081;-82
2023/07/16 04:13:38;;;;;;;8.00;3.03;;;16.80;99.90;;;;;;5066225;28;20048;-82
2023/07/16 04:16:04;;;;;;;8.82;3.17;;;16.80;99.90;;;;;;5029766;28;20048;-82
2023/07/16 04:18:30;;;;;;;6.70;3.25;;;16.80;99.90;;;;;;5046846;28;20050;-82
2023/07/16 04:20:55;;;;;;;8.15;2.58;;;16.80;99.90;;;;;;5030339;28;20049;-81
2023/07/16 04:23:22;;;;;;;7.38;2.80;;;16.80;99.90;;;;;;5046983;28;20044;-82
2023/07/16 04:25:51;;;;;;;7.78;2.75;;;16.80;99.90;;;;;;5048064;28;20346;-81
2023/07/16 04:28:17;;;;;;;8.43;2.95;;;16.90;99.90;;;;;;5029181;28;20037;-82
2023/07/16 04:30:43;;;;;;;6.75;3.53;;;16.70;99.90;;;;;;5031435;28;20049;-83
2023/07/16 04:33:09;;;;;;;8.77;2.95;;;16.90;99.90;;;;;;5046571;28;20040;-82
2023/07/16 04:35:35;;;;;;;9.93;3.40;;;16.90;99.90;;;;;;5046526;28;20516;-82
2023/07/16 04:38:00;;;;;;;9.15;2.97;;;16.90;99.90;;;;;;5046878;28;20056;-82
2023/07/16 04:40:27;;;;;;;13.35;3.45;;;16.90;99.90;;;;;;5046294;28;20488;-83
2023/07/16 04:42:52;;;;;;;8.80;3.15;;;16.90;99.90;;;;;;5014711;28;20044;-82
2023/07/16 04:45:18;;;;;;;9.48;3.63;;;17.00;99.90;;;;;;5046251;28;20491;-82
2023/07/16 04:47:44;;;;;;;8.18;3.03;;;17.00;99.90;;;;;;5030886;28;20056;-81
2023/07/16 04:50:09;;;;;;;12.23;3.15;;;17.90;99.90;;;;;;5029209;28;20052;-82
2023/07/16 04:52:35;;;;;;;8.82;2.92;;;17.10;99.90;;;;;;5030727;28;20120;-82
2023/07/16 04:55:01;;;;;;;8.65;3.75;;;17.10;99.90;;;;;;5029185;28;20499;-82
2023/07/16 04:57:26;;;;;;;6.10;2.95;;;17.10;99.90;;;;;;5046079;28;20036;-82
2023/07/16 04:59:53;;;;;;;7.55;3.35;;;17.20;99.90;;;;;;5046969;28;20052;-82
2023/07/16 05:02:18;;;;;;;9.07;3.30;;;17.20;99.90;;;;;;5029429;28;20377;-84
2023/07/16 05:04:47;;;;;;;10.15;4.22;;;17.30;99.90;;;;;;5048459;28;20059;-82
2023/07/16 05:07:12;;;;;;;11.00;3.97;;;17.30;99.90;;;;;;5046333;28;20459;-82
2023/07/16 05:09:38;;;;;;;9.52;4.18;;;17.30;99.90;;;;;;5047574;28;20102;-82
2023/07/16 05:12:04;;;;;;;9.68;3.95;;;17.40;99.90;;;;;;5046022;28;20482;-81
2023/07/16 05:14:30;;;;;;;9.57;3.03;;;17.40;99.90;;;;;;5044858;28;20127;-82
2023/07/16 05:16:56;;;;;;;9.88;3.28;;;17.50;99.90;;;;;;5030287;28;20128;-81
2023/07/16 05:19:22;;;;;;;9.15;3.42;;;17.60;99.90;;;;;;5029341;28;20048;-81
2023/07/16 05:21:48;;;;;;;9.40;2.95;;;17.60;99.90;;;;;;5047630;28;20087;-82
2023/07/16 05:24:14;;;;;;;8.05;3.38;;;17.70;99.90;;;;;;5045721;28;20449;-81
2023/07/16 05:26:43;;;;;;;8.88;3.38;;;17.70;99.90;;;;;;5030003;28;20389;-83
2023/07/16 05:29:08;;;;;;;7.43;3.42;;;17.70;99.90;;;;;;5012489;28;20048;-81
2023/07/16 05:31:34;;;;;;;6.43;2.83;;;17.70;99.90;;;;;;5029405;28;20446;-81
2023/07/16 05:34:00;;;;;;;9.20;3.00;;;17.70;99.90;;;;;;5029639;28;20061;-80
2023/07/16 05:36:25;;;;;;;8.68;2.50;;;17.90;99.90;;;;;;5029397;28;20059;-81
2023/07/16 05:38:51;;;;;;;8.52;2.97;;;18.00;99.90;;;;;;5047347;28;20048;-81
2023/07/16 05:41:17;;;;;;;6.07;2.70;;;18.10;99.90;;;;;;5045276;28;20040;-80
2023/07/16 05:43:42;;;;;;;8.20;2.95;;;18.30;99.90;;;;;;5047011;28;20357;-82
2023/07/16 05:46:08;;;;;;;12.85;2.85;;;18.30;99.90;;;;;;5045417;28;20064;-81
2023/07/16 05:48:34;;;;;;;5.22;2.58;;;18.30;99.90;;;;;;5028838;28;20056;-81
2023/07/16 05:50:59;;;;;;;9.25;2.85;;;18.30;99.90;;;;;;5028795;28;20048;-82
2023/07/16 05:53:25;;;;;;;5.47;2.53;;;18.20;99.90;;;;;;5045365;28;20127;-79
2023/07/16 05:55:51;;;;;;;6.75;2.60;;;18.30;99.90;;;;;;5046558;28;20152;-79
2023/07/16 05:58:17;;;;;;;5.32;2.50;;;18.40;99.90;;;;;;5063041;28;20056;-79
2023/07/16 06:00:43;;;;;;;9.98;2.70;;;18.40;99.90;;;;;;5065003;28;20048;-80
2023/07/16 06:03:09;;;;;;;6.35;2.38;;;18.60;99.90;;;;;;5062840;28;20051;-79
2023/07/16 06:05:36;;;;;;;8.73;2.30;;;18.70;99.90;;;;;;5045896;28;20091;-79
2023/07/16 06:08:02;;;;;;;4.53;2.20;;;18.70;99.90;;;;;;5063466;28;20053;-78
2023/07/16 06:10:28;;;;;;;8.57;2.20;;;18.80;99.90;;;;;;5028975;28;20135;-80
2023/07/16 06:12:54;;;;;;;6.15;2.45;;;18.80;99.90;;;;;;5013298;28;20100;-79
2023/07/16 06:15:20;;;;;;;7.72;2.90;;;18.80;99.90;;;;;;5044665;28;20277;-79
2023/07/16 06:17:46;;;;;;;5.65;2.50;;;17.60;99.90;;;;;;5046705;28;20044;-78
2023/07/16 06:20:11;;;;;;;11.95;3.03;;;18.70;99.90;;;;;;5044789;28;20043;-79
2023/07/16 06:22:37;;;;;;;11.35;3.10;;;18.70;99.90;;;;;;5045524;28;20055;-81
2023/07/16 06:25:04;;;;;;;4.82;2.22;;;18.70;99.90;;;;;;5045236;28;20045;-80
2023/07/16 06:27:30;;;;;;;6.43;2.50;;;18.70;99.90;;;;;;5016769;28;20094;-81
2023/07/16 06:29:56;;;;;;;6.93;2.55;;;18.80;99.90;;;;;;5049326;28;20076;-80
2023/07/16 06:32:21;;;;;;;7.38;3.63;;;18.80;99.90;;;;;;5048572;28;20178;-84
2023/07/16 06:34:47;;;;;;;7.10;2.83;;;18.70;99.90;;;;;;5050494;28;20462;-82
2023/07/16 06:37:13;;;;;;;7.65;3.90;;;18.70;99.90;;;;;;5031743;28;20051;-83
2023/07/16 06:39:39;;;;;;;7.05;2.10;;;19.10;99.90;;;;;;5049757;28;20048;-82
2023/07/16 06:42:05;;;;;;;9.68;3.60;;;18.60;99.90;;;;;;5032549;28;20056;-81
2023/07/16 06:44:30;;;;;;;8.18;2.47;;;18.60;99.90;;;;;;5031954;28;20080;-81
2023/07/16 06:46:57;;;;;;;7.88;3.00;;;18.60;99.90;;;;;;5066789;28;20157;-82
2023/07/16 06:49:23;;;;;;;7.95;3.38;;;18.60;99.90;;;;;;5048831;28;20447;-82
2023/07/16 06:51:49;;;;;;;11.80;3.28;;;18.70;99.90;;;;;;5050065;28;20040;-82
2023/07/16 06:54:20;;;;;;;8.50;3.22;;;18.70;99.90;;;;;;5031913;28;20124;-82
2023/07/16 06:56:46;;;;;;;6.97;2.88;;;18.80;99.90;;;;;;5049818;28;20036;-82
2023/07/16 06:59:12;;;;;;;7.68;3.13;;;18.90;99.90;;;;;;5048709;28;20491;-83
2023/07/16 07:01:37;;;;;;;8.95;3.53;;;18.90;99.90;;;;;;5031736;28;20476;-83
2023/07/16 07:04:03;;;;;;;8.38;2.90;;;19.00;99.90;;;;;;5048925;28;20149;-82
2023/07/16 07:06:29;;;;;;;7.65;3.03;;;18.20;99.90;;;;;;5047815;28;20055;-80
2023/07/16 07:08:55;;;;;;;11.18;3.28;;;18.90;99.90;;;;;;5067731;28;20047;-80
2023/07/16 07:11:23;;;;;;;4.97;2.50;;;18.80;99.90;;;;;;5048165;28;20123;-79
2023/07/16 07:13:50;;;;;;;9.10;3.47;;;18.90;99.90;;;;;;5049201;28;20529;-79
2023/07/16 07:16:16;;;;;;;11.18;3.42;;;19.00;99.90;;;;;;5015149;28;20141;-78
2023/07/16 07:18:41;;;;;;;6.70;3.08;;;19.10;99.90;;;;;;5066694;28;20094;-80
2023/07/16 07:21:07;;;;;;;6.25;3.65;;;19.30;99.90;;;;;;5015238;28;20123;-80
2023/07/16 07:23:33;;;;;;;8.00;2.95;;;18.60;99.90;;;;;;5065880;28;20040;-79
2023/07/16 07:25:59;;;;;;;4.75;2.60;;;19.50;99.90;;;;;;5032656;28;20446;-79
2023/07/16 07:28:25;;;;;;;8.20;3.05;;;19.50;99.90;;;;;;5049062;28;20087;-78
2023/07/16 07:30:51;;;;;;;9.05;3.17;;;19.50;99.90;;;;;;5051074;28;20045;-79
2023/07/16 07:33:16;;;;;;;6.68;2.72;;;19.60;99.90;;;;;;5049658;28;20098;-79
2023/07/16 07:35:42;;;;;;;6.13;2.78;;;19.50;99.90;;;;;;5032982;28;20108;-79
2023/07/16 07:38:08;;;;;;;10.82;3.35;;;19.50;99.90;;;;;;5049752;28;20049;-82
2023/07/16 07:40:33;;;;;;;11.75;3.25;;;19.20;99.90;;;;;;5050122;28;20053;-81
2023/07/16 07:42:59;;;;;;;5.22;3.30;;;18.90;99.90;;;;;;5068342;28;20090;-81
2023/07/16 07:45:26;;;;;;;8.50;3.22;;;18.70;99.90;;;;;;5048027;28;20131;-86
2023/07/16 07:47:52;;;;;;;8.20;3.53;;;18.60;99.90;;;;;;5032246;28;20053;-80
2023/07/16 07:50:17;;;;;;;8.23;3.22;;;18.60;99.90;;;;;;5047643;28;20064;-79
2023/07/16 07:52:43;;;;;;;8.45;3.13;;;18.70;99.90;;;;;;5065418;28;20439;-79
2023/07/16 07:55:09;;;;;;;10.57;3.15;;;18.80;99.90;;;;;;5047210;28;20048;-79
2023/07/16 07:57:35;;;;;;;4.75;2.60;;;18.90;99.90;;;;;;5047139;28;20044;-79
2023/07/16 08:00:01;;;;;;;6.05;2.67;;;18.90;99.90;;;;;;5047882;28;20047;-80
2023/07/16 08:02:27;;;;;;;6.95;2.90;;;18.90;99.90;;;;;;5046602;28;20054;-79
2023/07/16 08:04:56;;;;;;;9.52;2.90;;;18.80;99.90;;;;;;5048130;28;20564;-79
2023/07/16 08:07:22;;;;;;;19.13;3.67;;;18.80;99.90;;;;;;5046454;28;20128;-79
2023/07/16 08:09:48;;;;;;;7.60;3.50;;;18.80;99.90;;;;;;5065107;28;20123;-79
2023/07/16 08:12:14;;;;;;;9.15;2.60;;;18.90;99.90;;;;;;5030349;28;20084;-79
2023/07/16 08:14:41;;;;;;;13.85;2.67;;;19.10;99.90;;;;;;5064592;28;20076;-79
2023/07/16 08:17:07;;;;;;;4.72;2.92;;;19.30;99.90;;;;;;5047986;28;20067;-81
2023/07/16 08:19:33;;;;;;;4.88;2.58;;;19.40;99.90;;;;;;5029901;28;20480;-80
2023/07/16 08:21:58;;;;;;;4.75;3.05;;;19.30;99.90;;;;;;5048052;28;20044;-80
2023/07/16 08:24:25;;;;;;;7.43;2.53;;;19.30;99.90;;;;;;5029550;28;20131;-80
2023/07/16 08:26:51;;;;;;;7.38;2.92;;;19.30;99.90;;;;;;5047348;28;20080;-79
2023/07/16 08:29:16;;;;;;;7.57;2.85;;;19.20;99.90;;;;;;5030001;28;20518;-79
2023/07/16 08:31:42;;;;;;;8.70;3.03;;;19.10;99.90;;;;;;5046849;28;20044;-79
2023/07/16 08:34:08;;;;;;;7.93;2.72;;;19.00;99.90;;;;;;5047247;28;20086;-80
2023/07/16 08:36:34;;;;;;;5.57;3.10;;;18.90;99.90;;;;;;5046187;28;20554;-80
2023/07/16 08:38:59;;;;;;;8.18;3.10;;;18.80;99.90;;;;;;5047947;28;20053;-79
2023/07/16 08:41:26;;;;;;;8.38;3.88;;;18.70;99.90;;;;;;5046118;28;20063;-79
2023/07/16 08:43:52;;;;;;;5.90;3.28;;;18.60;99.90;;;;;;5030231;28;20104;-79
2023/07/16 08:46:18;;;;;;;9.35;3.78;;;17.20;99.90;;;;;;5030020;28;20094;-79
2023/07/16 08:48:45;;;;;;;8.35;3.33;;;18.60;99.90;;;;;;5029105;28;20060;-79
2023/07/16 08:51:14;;;;;;;7.00;2.95;;;18.70;99.90;;;;;;5046759;28;20126;-81
2023/07/16 08:53:40;;;;;;;9.88;3.60;;;18.70;99.90;;;;;;5045496;28;20149;-81
2023/07/16 08:56:06;;;;;;;10.38;3.75;;;18.90;99.90;;;;;;5047811;28;20158;-79
2023/07/16 08:58:32;;;;;;;7.18;3.58;;;19.00;99.90;;;;;;5045471;28;20044;-79
2023/07/16 09:01:00;;;;;;;8.93;3.53;;;19.30;99.90;;;;;;5047050;28;20095;-81
2023/07/16 09:03:26;;;;;;;6.65;3.08;;;19.60;99.90;;;;;;5046590;28;20132;-79
2023/07/16 09:05:53;;;;;;;6.88;4.22;;;19.80;99.90;;;;;;5046282;28;20112;-81
2023/07/16 09:08:19;;;;;;;10.43;3.35;;;20.10;99.90;;;;;;5046675;28;20029;-79
2023/07/16 09:10:56;;;;;;;8.05;3.22;;;20.40;99.90;;;;;;5045534;28;20047;-80
2023/07/16 09:13:27;;;;;;;6.88;3.15;;;20.60;99.90;;;;;;5047577;28;20055;-79
2023/07/16 09:15:57;;;;;;;9.90;3.42;;;20.70;99.90;;;;;;5046094;28;20053;-80
2023/07/16 09:18:27;;;;;;;5.53;2.90;;;20.90;99.90;;;;;;5046945;28;20062;-79
2023/07/16 09:21:05;;;;;;;8.20;2.90;;;21.00;99.90;;;;;;5047321;28;20048;-80
2023/07/16 09:23:32;;;;;;;7.32;2.50;;;20.90;99.90;;;;;;5046262;28;20084;-80
2023/07/16 09:25:58;;;;;;;5.25;2.47;;;20.90;99.90;;;;;;5048337;28;20384;-79
2023/07/16 09:28:24;;;;;;;7.57;2.63;;;20.90;99.90;;;;;;5047709;28;20055;-80
2023/07/16 09:30:53;;;;;;;6.18;2.85;;;20.90;99.90;;;;;;5031158;28;20557;-81
2023/07/16 09:33:22;;;;;;;6.15;3.00;;;20.80;99.90;;;;;;5047152;28;20049;-80
2023/07/16 09:35:49;;;;;;;10.20;3.03;;;20.80;99.90;;;;;;5029985;28;20484;-80
2023/07/16 09:38:16;;;;;;;6.53;3.13;;;20.80;99.90;;;;;;5047246;28;20477;-78
2023/07/16 09:40:42;;;;;;;6.20;3.08;;;20.80;99.90;;;;;;5013387;28;20036;-80
2023/07/16 09:43:09;;;;;;;8.65;2.80;;;20.90;99.90;;;;;;5048046;28;20074;-81
2023/07/16 09:45:35;;;;;;;8.02;3.03;;;21.00;99.90;;;;;;5045543;28;20044;-80
2023/07/16 09:48:02;;;;;;;6.80;3.22;;;21.20;99.90;;;;;;5047082;28;20133;-80
2023/07/16 09:50:30;;;;;;;5.97;3.30;;;21.40;99.90;;;;;;5046564;28;20143;-80
2023/07/16 09:52:57;;;;;;;6.13;2.60;;;21.50;99.90;;;;;;5045795;28;20071;-79
2023/07/16 09:55:24;;;;;;;7.82;2.92;;;21.70;99.90;;;;;;5064650;28;20056;-80
2023/07/16 09:57:53;;;;;;;5.70;3.05;;;21.90;99.90;;;;;;5045235;28;20076;-79
2023/07/16 10:00:21;;;;;;;10.70;3.00;;;21.80;99.90;;;;;;5047442;28;20045;-80
2023/07/16 10:02:47;;;;;;;7.70;3.15;;;21.70;99.90;;;;;;5049258;28;20048;-78
2023/07/16 10:05:18;;;;;;;8.68;2.80;;;21.50;99.90;;;;;;5033804;28;20449;-80
2023/07/16 10:07:51;;;;;;;4.40;2.33;;;21.30;99.90;;;;;;5067238;28;20041;-79
2023/07/16 10:10:17;;;;;;;6.65;3.15;;;21.30;99.90;;;;;;5049253;28;20041;-80
2023/07/16 10:12:54;;;;;;;6.22;2.65;;;21.60;99.90;;;;;;5033222;28;20539;-80
2023/07/16 10:15:28;;;;;;;6.60;2.53;;;21.70;99.90;;;;;;5066348;28;20059;-80
2023/07/16 10:17:54;;;;;;;4.35;2.63;;;21.70;99.50;;;;;;5034063;28;20049;-80
2023/07/16 10:20:42;;;;;;;4.28;2.25;;;21.60;99.60;;;;;;5048888;28;20044;-81
2023/07/16 10:23:16;;;;;;;7.72;2.60;;;21.60;98.80;;;;;;5033121;28;20495;-80
2023/07/16 10:26:06;;;;;;;5.95;2.53;;;21.60;99.10;;;;;;5049625;28;20062;-79
2023/07/16 10:28:36;;;;;;;7.00;2.70;;;21.50;98.30;;;;;;5066178;28;20120;-81
2023/07/16 10:31:07;;;;;;;6.57;3.00;;;21.50;99.20;;;;;;5049399;28;20510;-78
2023/07/16 10:33:33;;;;;;;5.90;3.08;;;21.60;99.30;;;;;;5048990;28;20139;-79
2023/07/16 10:35:59;;;;;;;4.93;2.53;;;21.60;99.10;;;;;;5048442;28;20579;-80
2023/07/16 10:38:25;;;;;;;5.43;2.60;;;21.70;99.00;;;;;;5016269;28;20393;-79
2023/07/16 10:40:51;;;;;;;8.55;3.42;;;21.60;98.90;;;;;;5031854;28;20434;-84
2023/07/16 10:43:17;;;;;;;6.68;2.38;;;21.50;98.90;;;;;;5049629;28;20040;-80
2023/07/16 10:45:46;;;;;;;6.75;3.35;;;21.30;98.80;;;;;;5047936;28;20069;-80
2023/07/16 10:48:12;;;;;;;6.22;3.22;;;21.20;99.00;;;;;;5032510;28;20128;-79
2023/07/16 10:50:38;;;;;;;5.80;2.78;;;21.00;99.10;;;;;;5048364;28;20052;-79
2023/07/16 10:53:04;;;;;;;5.05;2.47;;;20.90;99.20;;;;;;5031926;28;20037;-79
2023/07/16 10:55:32;;;;;;;7.25;3.25;;;21.00;99.50;;;;;;5066679;28;20099;-79
2023/07/16 10:57:58;;;;;;;9.38;3.00;;;21.30;99.70;;;;;;5048132;28;20123;-79
2023/07/16 11:00:23;;;;;;;7.97;3.35;;;21.50;99.20;;;;;;5049392;28;20127;-80
2023/07/16 11:02:52;;;;;;;8.25;3.13;;;21.70;98.90;;;;;;5047831;28;20047;-79
2023/07/16 11:05:19;;;;;;;6.13;2.95;;;21.60;98.70;;;;;;5031832;28;20052;-80
2023/07/16 11:07:49;;;;;;;4.15;2.35;;;21.60;98.70;;;;;;5048622;28;20387;-81
2023/07/16 11:10:16;;;;;;;6.45;2.67;;;21.70;98.40;;;;;;5031388;28;20131;-81
2023/07/16 11:12:42;;;;;;;7.25;3.03;;;21.90;98.40;;;;;;5048489;28;20052;-81
2023/07/16 11:15:08;;;;;;;6.40;2.33;;;22.00;98.10;;;;;;5047236;28;20135;-79
2023/07/16 11:17:36;;;;;;;3.75;2.53;;;22.00;98.10;;;;;;5048915;28;20044;-82
2023/07/16 11:20:04;;;;;;;7.53;3.05;;;22.00;98.10;;;;;;5046781;28;20545;-80
2023/07/16 11:22:29;;;;;;;8.18;3.08;;;22.00;98.20;;;;;;5048482;28;20144;-80
2023/07/16 11:24:55;;;;;;;5.35;2.58;;;21.90;98.00;;;;;;5030372;28;20550;-80
2023/07/16 11:27:24;;;;;;;8.75;2.17;;;22.00;98.00;;;;;;5047142;28;20114;-80
2023/07/16 11:29:56;;;;;;;5.65;2.75;;;22.00;98.10;;;;;;5047311;28;20037;-80
2023/07/16 11:32:37;;;;;;;10.07;2.60;;;21.90;97.60;;;;;;5030076;28;20113;-81
2023/07/16 11:35:05;;;;;;;4.43;2.25;;;21.70;97.50;;;;;;5048676;28;20384;-80
2023/07/16 11:37:34;;;;;;;6.30;2.72;;;21.50;97.60;;;;;;5030786;28;20091;-80
2023/07/16 11:40:06;;;;;;;6.47;2.55;;;21.40;97.60;;;;;;5030575;28;20044;-80
2023/07/16 11:42:33;;;;;;;10.77;2.85;;;21.30;98.00;;;;;;5046639;28;20049;-80
2023/07/16 11:44:59;;;;;;;5.70;3.00;;;21.30;98.40;;;;;;5047061;28;20276;-79
2023/07/16 11:47:26;;;;;;;4.72;2.15;;;21.60;98.00;;;;;;5031179;28;20053;-81
2023/07/16 11:49:52;;;;;;;5.95;2.38;;;21.60;98.30;;;;;;5064861;28;20045;-81
2023/07/16 11:52:27;;;;;;;4.55;2.13;;;21.60;97.90;;;;;;5048342;28;20110;-81
2023/07/16 11:54:56;;;;;;;4.97;2.22;;;21.60;97.80;;;;;;5064362;28;20527;-81
2023/07/16 11:57:22;;;;;;;8.95;3.35;;;21.50;97.80;;;;;;5065365;28;20048;-81
2023/07/16 11:59:47;;;;;;;6.32;2.75;;;21.30;98.20;;;;;;5047594;28;20051;-81
2023/07/16 12:02:14;;;;;;;4.43;2.50;;;21.10;98.80;;;;;;5064966;28;20396;-80
2023/07/16 12:04:40;;;;;;;4.32;2.35;;;21.00;99.30;;;;;;5066099;28;20384;-82
2023/07/16 12:07:06;;;;;;;7.03;2.85;;;22.10;99.90;;;;;;5030132;28;20123;-81
2023/07/16 12:09:32;;;;;;;6.85;3.00;;;20.80;99.90;;;;;;5030764;28;20064;-81
2023/07/16 12:11:57;;;;;;;6.07;2.72;;;20.60;99.90;;;;;;5065447;28;20040;-82
2023/07/16 12:14:23;;;;;;;6.43;3.08;;;20.50;99.90;;;;;;5046693;28;20483;-81
2023/07/16 12:16:49;;;;;;;5.97;2.80;;;20.50;99.90;;;;;;5046885;28;20044;-82
2023/07/16 12:19:15;;;;;;;6.60;3.22;;;20.60;99.90;;;;;;5065624;28;20044;-82
2023/07/16 12:21:41;;;;;;;6.50;3.22;;;20.90;99.90;;;;;;5047756;28;20605;-80
2023/07/16 12:24:07;;;;;;;7.78;3.08;;;21.20;99.90;;;;;;5046087;28;20040;-82
2023/07/16 12:26:32;;;;;;;6.88;3.05;;;20.80;99.80;;;;;;5065680;28;20041;-82
2023/07/16 12:29:02;;;;;;;6.93;3.30;;;21.40;99.70;;;;;;5046581;28;20037;-81
2023/07/16 12:31:28;;;;;;;6.72;3.53;;;21.40;99.80;;;;;;5030693;28;20044;-84
2023/07/16 12:33:54;;;;;;;10.32;3.97;;;21.20;99.90;;;;;;5047140;28;20054;-83
2023/07/16 12:36:19;;;;;;;7.93;3.40;;;21.00;99.90;;;;;;5064336;28;20100;-84
2023/07/16 12:38:48;;;;;;;9.57;3.95;;;20.90;99.90;;;;;;5047090;28;20127;-85
2023/07/16 12:41:15;;;;;;;8.05;4.47;;;20.90;99.90;;;;;;5030230;28;20136;-83
2023/07/16 12:43:41;;;;;;;6.13;3.45;;;20.50;99.90;;;;;;5047187;28;20407;-84